Time;durP1;ratioP1;P1;durP2;ratioP2;P2;SDS_P1;SDS_P2;PMS_P1;PMS_P2;Temp;Humidity;BMP_temperature;BMP_pressure;BME280_temperature;BME280_humidity;BME280_pressure;Samples;Min_cycle;Max_cycle;Signal;HPM_P1;HPM_P2
2023/10/06 00:02:58;;;;;;;8.40;4.15;;;20.70;59.70;;;;;;5981716;29;20042;-76
2023/10/06 00:05:59;;;;;;;12.02;4.47;;;20.70;59.80;;;;;;5981154;29;20041;-77
2023/10/06 00:09:00;;;;;;;10.23;4.03;;;20.60;60.00;;;;;;5950000;29;20038;-77
2023/10/06 00:12:06;;;;;;;9.52;4.40;;;20.60;60.00;;;;;;5978776;29;20107;-77
2023/10/06 00:15:11;;;;;;;8.48;4.80;;;20.60;60.10;;;;;;5981762;29;20152;-77
2023/10/06 00:18:16;;;;;;;9.32;4.30;;;20.60;60.20;;;;;;5965180;29;20027;-77
2023/10/06 00:21:21;;;;;;;6.90;4.18;;;20.50;60.10;;;;;;5965906;29;20204;-77
2023/10/06 00:24:25;;;;;;;6.10;3.40;;;20.50;60.20;;;;;;5961533;29;20059;-77
2023/10/06 00:27:29;;;;;;;10.98;4.05;;;20.50;60.30;;;;;;5977357;29;20507;-76
2023/10/06 00:30:31;;;;;;;6.57;3.78;;;20.30;60.20;;;;;;5964986;29;20122;-77
2023/10/06 00:33:32;;;;;;;6.93;3.67;;;20.50;60.50;;;;;;5958310;29;20031;-78
2023/10/06 00:36:34;;;;;;;9.57;3.85;;;20.40;60.50;;;;;;5956886;29;20071;-77
2023/10/06 00:39:36;;;;;;;6.25;3.40;;;20.40;60.70;;;;;;5981663;29;20038;-77
2023/10/06 00:42:38;;;;;;;5.63;3.45;;;20.30;60.90;;;;;;5965307;29;20038;-77
2023/10/06 00:45:39;;;;;;;12.80;3.38;;;20.30;61.10;;;;;;5980383;29;20107;-78
2023/10/06 00:48:41;;;;;;;11.07;4.32;;;20.20;61.20;;;;;;5969772;29;20042;-78
2023/10/06 00:51:42;;;;;;;7.47;3.67;;;20.10;61.40;;;;;;5968890;29;20079;-77
2023/10/06 00:54:44;;;;;;;7.68;3.70;;;20.10;61.60;;;;;;5964881;29;20399;-77
2023/10/06 00:57:53;;;;;;;10.52;4.13;;;20.00;61.70;;;;;;5981430;29;20084;-78
2023/10/06 01:00:56;;;;;;;7.82;3.50;;;20.00;61.80;;;;;;5979594;29;20053;-77
2023/10/06 01:04:11;;;;;;;8.52;3.78;;;20.00;61.90;;;;;;5965022;29;20061;-79
2023/10/06 01:07:16;;;;;;;7.95;4.15;;;20.00;62.10;;;;;;5982124;29;20113;-78
2023/10/06 01:10:34;;;;;;;10.35;4.43;;;20.00;62.20;;;;;;5965201;29;20069;-78
2023/10/06 01:13:35;;;;;;;8.23;3.83;;;20.10;62.40;;;;;;5970786;29;20038;-78
2023/10/06 01:16:36;;;;;;;7.18;3.92;;;19.90;62.30;;;;;;5967773;29;20719;-78
2023/10/06 01:19:36;;;;;;;7.40;3.75;;;19.80;62.40;;;;;;5965026;29;20108;-78
2023/10/06 01:22:44;;;;;;;7.03;4.20;;;19.80;62.50;;;;;;5961941;29;20053;-79
2023/10/06 01:25:46;;;;;;;6.38;3.30;;;19.80;62.60;;;;;;5981223;29;20030;-78
2023/10/06 01:28:47;;;;;;;8.98;3.53;;;19.80;62.80;;;;;;5983310;29;20602;-78
2023/10/06 01:31:49;;;;;;;10.15;4.38;;;19.70;62.80;;;;;;6003541;29;20144;-80
2023/10/06 01:34:50;;;;;;;9.52;3.67;;;19.70;62.80;;;;;;5967126;29;20037;-79
2023/10/06 01:37:57;;;;;;;15.07;4.05;;;19.70;62.90;;;;;;5968776;29;20488;-78
2023/10/06 01:41:02;;;;;;;8.98;3.90;;;19.70;63.00;;;;;;5971765;29;20142;-79
2023/10/06 01:44:10;;;;;;;11.52;4.35;;;19.60;63.10;;;;;;5965380;29;20500;-78
2023/10/06 01:47:11;;;;;;;8.63;3.67;;;19.60;63.30;;;;;;5948079;29;20033;-78
2023/10/06 01:50:13;;;;;;;7.72;3.88;;;19.60;63.50;;;;;;5963974;29;20495;-78
2023/10/06 01:53:18;;;;;;;7.68;4.05;;;19.50;63.60;;;;;;5980195;29;20125;-77
2023/10/06 01:56:22;;;;;;;12.10;4.40;;;19.50;63.90;;;;;;5964139;29;20162;-78
2023/10/06 01:59:23;;;;;;;10.45;4.07;;;19.50;64.00;;;;;;5968001;29;20508;-78
2023/10/06 02:02:24;;;;;;;12.68;4.55;;;19.40;64.00;;;;;;5979238;29;20086;-79
2023/10/06 02:05:25;;;;;;;11.25;4.10;;;19.40;63.90;;;;;;5980854;29;20101;-79
2023/10/06 02:08:26;;;;;;;12.07;4.60;;;19.40;63.90;;;;;;5981003;29;20460;-78
2023/10/06 02:11:30;;;;;;;7.30;3.58;;;19.40;63.80;;;;;;5964229;29;20066;-78
2023/10/06 02:14:31;;;;;;;6.50;3.83;;;19.40;63.90;;;;;;5962627;29;20061;-78
2023/10/06 02:17:34;;;;;;;6.75;3.70;;;19.40;63.90;;;;;;5961582;29;20034;-79
2023/10/06 02:20:35;;;;;;;7.30;3.65;;;19.40;63.90;;;;;;5976598;29;20534;-78
2023/10/06 02:23:41;;;;;;;7.43;4.07;;;19.40;64.10;;;;;;5966240;29;20034;-77
2023/10/06 02:26:57;;;;;;;10.38;3.88;;;19.30;64.00;;;;;;5960728;29;20131;-78
2023/10/06 02:29:58;;;;;;;9.10;4.20;;;19.30;64.10;;;;;;5961468;29;20079;-77
2023/10/06 02:33:01;;;;;;;10.48;4.50;;;19.30;64.10;;;;;;5954166;29;20045;-78
2023/10/06 02:36:15;;;;;;;9.85;4.10;;;19.30;64.10;;;;;;5973794;29;20049;-77
2023/10/06 02:39:16;;;;;;;15.88;4.32;;;19.30;64.10;;;;;;5982447;29;20095;-78
2023/10/06 02:42:19;;;;;;;7.47;3.80;;;19.20;64.00;;;;;;5967446;29;20050;-77
2023/10/06 02:45:23;;;;;;;13.68;4.63;;;19.20;64.10;;;;;;5982940;29;20578;-78
2023/10/06 02:48:32;;;;;;;8.07;3.45;;;19.20;64.10;;;;;;5985699;29;20053;-77
2023/10/06 02:51:32;;;;;;;9.53;4.77;;;19.20;64.10;;;;;;5972657;29;20101;-78
2023/10/06 02:54:33;;;;;;;9.18;4.53;;;19.20;64.20;;;;;;5947916;29;20286;-78
2023/10/06 02:57:38;;;;;;;9.60;4.53;;;19.20;64.20;;;;;;5944766;29;20038;-77
2023/10/06 03:00:40;;;;;;;12.63;4.80;;;19.20;64.20;;;;;;5982240;29;20444;-78
2023/10/06 03:03:47;;;;;;;10.68;4.97;;;19.10;64.20;;;;;;5967170;29;20075;-78
2023/10/06 03:06:55;;;;;;;10.63;4.53;;;19.10;64.30;;;;;;5966861;29;20034;-77
2023/10/06 03:09:56;;;;;;;8.77;4.00;;;19.00;64.40;;;;;;5947936;29;20050;-76
2023/10/06 03:12:57;;;;;;;7.07;3.67;;;19.00;64.50;;;;;;5978103;29;20086;-78
2023/10/06 03:16:00;;;;;;;11.55;4.15;;;18.90;64.60;;;;;;5966486;29;20034;-77
2023/10/06 03:19:01;;;;;;;8.38;3.60;;;18.90;64.70;;;;;;5967157;29;20030;-78
2023/10/06 03:22:05;;;;;;;10.57;4.50;;;18.90;64.90;;;;;;5967757;29;20159;-77
2023/10/06 03:25:17;;;;;;;23.45;4.75;;;18.80;64.90;;;;;;5944491;29;20035;-76
2023/10/06 03:28:19;;;;;;;7.97;4.50;;;18.90;65.00;;;;;;5951281;29;20095;-76
2023/10/06 03:34:23;;;;;;;10.38;4.18;;;18.90;64.90;;;;;;5966659;29;20749;-77
2023/10/06 03:37:51;;;;;;;22.90;5.57;;;18.90;64.90;;;;;;5980068;29;20030;-76
2023/10/06 03:41:10;;;;;;;10.48;4.63;;;18.90;64.80;;;;;;5963183;29;20099;-80
2023/10/06 03:44:12;;;;;;;11.50;5.05;;;18.90;64.80;;;;;;5977648;29;20584;-77
2023/10/06 03:47:15;;;;;;;11.55;5.07;;;18.90;64.80;;;;;;5951031;29;20062;-78
2023/10/06 03:50:19;;;;;;;23.15;4.65;;;18.80;64.80;;;;;;5971761;29;20055;-76
2023/10/06 03:53:20;;;;;;;7.72;4.15;;;18.80;64.90;;;;;;5965111;29;20043;-76
2023/10/06 03:56:21;;;;;;;15.15;5.65;;;18.80;65.10;;;;;;5960597;29;20457;-77
2023/10/06 03:59:23;;;;;;;11.70;6.10;;;18.80;65.20;;;;;;5956729;29;20039;-78
2023/10/06 04:02:38;;;;;;;12.48;6.07;;;18.80;65.20;;;;;;5964644;29;20061;-76
2023/10/06 04:05:40;;;;;;;11.45;5.70;;;18.80;65.40;;;;;;5952031;29;20046;-77
2023/10/06 04:08:48;;;;;;;11.77;5.22;;;18.70;65.50;;;;;;5950015;29;20130;-77
2023/10/06 04:11:49;;;;;;;10.88;5.43;;;18.70;65.60;;;;;;5976470;29;20109;-77
2023/10/06 04:14:50;;;;;;;12.38;5.60;;;18.60;65.50;;;;;;5966422;29;20038;-78
2023/10/06 04:17:51;;;;;;;9.25;4.88;;;18.60;65.10;;;;;;5946199;29;20038;-77
2023/10/06 04:20:54;;;;;;;10.32;4.95;;;18.60;65.80;;;;;;5962495;29;20046;-76
2023/10/06 04:23:56;;;;;;;7.75;4.75;;;18.60;66.00;;;;;;5981378;29;20606;-77
2023/10/06 04:26:57;;;;;;;11.70;4.88;;;18.50;65.90;;;;;;5964791;29;20039;-77
2023/10/06 04:29:58;;;;;;;13.02;5.00;;;18.40;66.00;;;;;;5964467;29;20551;-77
2023/10/06 04:32:59;;;;;;;9.50;4.90;;;18.40;66.10;;;;;;5964975;29;20079;-77
2023/10/06 04:36:10;;;;;;;10.32;4.85;;;18.30;66.30;;;;;;5988826;29;20027;-78
2023/10/06 04:39:16;;;;;;;8.50;4.28;;;18.30;66.40;;;;;;6000837;29;20117;-77
2023/10/06 04:42:18;;;;;;;9.57;4.28;;;18.20;66.60;;;;;;5981420;29;20038;-76
2023/10/06 04:45:19;;;;;;;11.02;4.13;;;18.20;66.60;;;;;;5960819;29;20030;-76
2023/10/06 04:48:21;;;;;;;9.25;4.55;;;18.20;66.60;;;;;;5964511;29;20042;-76
2023/10/06 04:51:21;;;;;;;7.68;4.38;;;18.20;66.60;;;;;;5954733;29;20777;-76
2023/10/06 04:54:22;;;;;;;10.10;4.15;;;18.20;66.50;;;;;;5980446;29;20034;-78
2023/10/06 04:57:24;;;;;;;19.58;5.55;;;18.20;66.60;;;;;;5980633;29;20745;-77
2023/10/06 05:00:27;;;;;;;9.77;4.35;;;18.90;67.20;;;;;;5949462;29;20042;-78
2023/10/06 05:03:41;;;;;;;15.60;5.03;;;18.10;66.70;;;;;;5973330;29;20042;-77
2023/10/06 05:06:42;;;;;;;10.38;5.40;;;18.10;67.00;;;;;;5971679;29;20047;-77
2023/10/06 05:09:43;;;;;;;9.93;4.32;;;18.00;67.10;;;;;;5980179;29;20439;-77
2023/10/06 05:12:44;;;;;;;6.32;4.10;;;18.00;67.30;;;;;;5973226;29;20043;-77
2023/10/06 05:15:45;;;;;;;8.05;4.45;;;18.00;67.40;;;;;;5980557;29;20037;-77
2023/10/06 05:18:47;;;;;;;10.00;4.55;;;18.00;67.50;;;;;;5963495;29;20102;-76
2023/10/06 05:21:52;;;;;;;9.52;4.60;;;17.90;67.50;;;;;;5968068;29;20038;-77
2023/10/06 05:24:53;;;;;;;10.27;4.80;;;17.90;67.60;;;;;;5962088;29;20038;-77
2023/10/06 05:27:54;;;;;;;20.40;5.13;;;17.90;67.70;;;;;;5964440;29;20093;-77
2023/10/06 05:30:55;;;;;;;12.13;4.45;;;17.90;67.70;;;;;;5964221;29;20448;-77
2023/10/06 05:33:56;;;;;;;11.35;5.10;;;17.90;67.70;;;;;;5967506;29;20050;-77
2023/10/06 05:36:59;;;;;;;8.27;4.28;;;17.90;67.70;;;;;;5985469;29;20027;-76
2023/10/06 05:40:00;;;;;;;17.17;4.57;;;17.90;67.80;;;;;;5976845;29;20381;-77
2023/10/06 05:43:02;;;;;;;9.90;4.50;;;17.90;67.80;;;;;;5980901;29;20042;-77
2023/10/06 05:46:03;;;;;;;12.82;4.90;;;17.80;67.80;;;;;;5983471;29;20043;-77
2023/10/06 05:49:08;;;;;;;19.45;5.05;;;17.80;67.90;;;;;;5973774;29;20046;-77
2023/10/06 05:52:10;;;;;;;12.95;4.75;;;17.80;68.00;;;;;;5981059;29;20037;-78
2023/10/06 05:55:12;;;;;;;10.52;4.45;;;17.80;68.00;;;;;;5963035;29;20072;-78
2023/10/06 05:58:14;;;;;;;10.43;5.03;;;17.80;68.00;;;;;;5981993;29;20034;-78
2023/10/06 06:01:18;;;;;;;12.60;5.43;;;17.80;68.70;;;;;;5970596;29;20042;-78
2023/10/06 06:04:19;;;;;;;14.32;5.90;;;17.80;67.80;;;;;;5977314;29;20066;-77
2023/10/06 06:07:20;;;;;;;11.80;5.18;;;17.80;67.70;;;;;;5984139;29;20046;-78
2023/10/06 06:10:21;;;;;;;11.23;5.38;;;17.90;67.80;;;;;;5966101;29;20042;-78
2023/10/06 06:13:22;;;;;;;11.43;4.90;;;17.80;67.90;;;;;;5991795;29;20034;-77
2023/10/06 06:16:24;;;;;;;11.25;4.97;;;17.80;68.00;;;;;;5968898;29;20074;-77
2023/10/06 06:19:24;;;;;;;11.23;4.22;;;17.80;68.00;;;;;;5967495;29;20061;-78
2023/10/06 06:22:27;;;;;;;11.43;4.70;;;17.80;68.20;;;;;;5955407;29;20056;-77
2023/10/06 06:25:29;;;;;;;13.98;5.75;;;17.80;68.10;;;;;;5965244;29;20077;-78
2023/10/06 06:28:30;;;;;;;17.33;4.68;;;17.80;67.90;;;;;;5987125;29;20130;-77
2023/10/06 06:31:34;;;;;;;13.55;4.43;;;17.90;67.80;;;;;;5957914;29;20031;-77
2023/10/06 06:34:35;;;;;;;9.50;5.10;;;17.80;67.80;;;;;;5980409;29;20060;-77
2023/10/06 06:37:36;;;;;;;14.85;5.30;;;17.90;67.80;;;;;;5983700;29;20027;-77
2023/10/06 06:40:38;;;;;;;16.25;5.47;;;17.80;67.70;;;;;;5983192;29;20408;-77
2023/10/06 06:43:43;;;;;;;9.55;4.90;;;17.90;67.80;;;;;;5966659;29;20045;-77
2023/10/06 06:46:44;;;;;;;11.88;5.15;;;17.90;67.70;;;;;;5982386;29;20570;-77
2023/10/06 06:49:48;;;;;;;9.68;5.07;;;17.90;67.60;;;;;;5973927;29;20105;-78
2023/10/06 06:52:54;;;;;;;18.60;5.45;;;17.90;67.60;;;;;;5966638;29;20082;-78
2023/10/06 06:55:55;;;;;;;14.60;5.47;;;17.90;67.50;;;;;;5975607;29;20117;-78
2023/10/06 06:58:56;;;;;;;11.35;5.55;;;18.00;67.50;;;;;;5981435;29;20114;-77
2023/10/06 07:02:04;;;;;;;10.43;6.30;;;18.00;67.40;;;;;;5983951;29;20129;-78
2023/10/06 07:05:05;;;;;;;13.77;5.03;;;18.10;67.30;;;;;;5966815;29;20132;-78
2023/10/06 07:08:07;;;;;;;13.52;5.68;;;18.10;67.20;;;;;;5982114;29;20038;-78
2023/10/06 07:11:10;;;;;;;13.00;5.20;;;18.20;67.00;;;;;;5967189;29;20038;-79
2023/10/06 07:14:14;;;;;;;16.83;4.85;;;18.20;66.80;;;;;;5951535;29;20716;-77
2023/10/06 07:17:14;;;;;;;13.40;5.25;;;18.20;66.80;;;;;;5966348;29;20091;-77
2023/10/06 07:20:18;;;;;;;11.82;5.10;;;18.30;66.50;;;;;;5965824;29;20446;-78
2023/10/06 07:23:19;;;;;;;9.35;4.55;;;18.40;66.40;;;;;;5965944;29;20049;-78
2023/10/06 07:26:22;;;;;;;16.38;5.80;;;18.40;66.20;;;;;;5966517;29;20046;-77
2023/10/06 07:29:23;;;;;;;12.70;5.28;;;18.50;65.90;;;;;;5966814;29;20035;-79
2023/10/06 07:32:23;;;;;;;11.05;5.50;;;18.50;65.80;;;;;;5966486;29;20045;-77
2023/10/06 07:35:31;;;;;;;10.95;4.95;;;18.50;65.60;;;;;;5967043;29;20033;-78
2023/10/06 07:38:32;;;;;;;14.93;4.60;;;18.50;65.40;;;;;;5982034;29;20549;-77
2023/10/06 07:41:33;;;;;;;11.05;5.25;;;18.60;65.30;;;;;;5965810;29;20180;-79
2023/10/06 07:44:34;;;;;;;11.75;4.53;;;18.60;65.30;;;;;;5982994;29;20128;-76
2023/10/06 07:47:36;;;;;;;9.35;4.72;;;18.70;65.20;;;;;;5966020;29;20042;-76
2023/10/06 07:50:37;;;;;;;11.90;5.00;;;18.80;65.00;;;;;;5982662;29;20673;-79
2023/10/06 07:53:38;;;;;;;23.55;5.45;;;18.90;64.80;;;;;;5965716;29;20102;-78
2023/10/06 07:56:42;;;;;;;13.63;5.30;;;19.00;64.50;;;;;;5966107;29;20045;-77
2023/10/06 07:59:43;;;;;;;8.68;5.13;;;19.10;64.20;;;;;;5982482;29;20078;-78
2023/10/06 08:02:44;;;;;;;13.70;5.07;;;19.30;63.90;;;;;;5965984;29;20053;-77
2023/10/06 08:05:45;;;;;;;11.30;4.70;;;19.40;63.40;;;;;;5982444;29;20038;-79
2023/10/06 08:08:48;;;;;;;9.70;4.75;;;19.50;63.00;;;;;;5965640;29;20223;-80
2023/10/06 08:11:48;;;;;;;11.07;5.13;;;19.60;62.80;;;;;;6000377;29;20156;-78
2023/10/06 08:14:50;;;;;;;17.02;5.45;;;19.70;62.50;;;;;;6003581;29;20045;-79
2023/10/06 08:17:55;;;;;;;12.10;5.57;;;19.70;62.10;;;;;;6005426;29;20038;-76
2023/10/06 08:20:59;;;;;;;15.48;5.15;;;19.90;62.10;;;;;;5987601;29;20045;-78
2023/10/06 08:24:00;;;;;;;13.07;4.95;;;19.90;61.70;;;;;;5993770;29;20034;-77
2023/10/06 08:27:01;;;;;;;15.45;5.20;;;20.00;61.30;;;;;;5965443;29;20918;-78
2023/10/06 08:30:16;;;;;;;8.52;4.68;;;20.20;61.00;;;;;;5982918;29;20034;-78
2023/10/06 08:33:16;;;;;;;19.88;5.70;;;20.30;60.70;;;;;;5966173;29;20058;-77
2023/10/06 08:36:18;;;;;;;12.55;4.82;;;20.40;60.30;;;;;;5982147;29;20058;-77
2023/10/06 08:39:20;;;;;;;16.55;5.95;;;20.60;59.90;;;;;;5949591;29;20038;-79
2023/10/06 08:42:22;;;;;;;12.90;5.65;;;20.60;59.60;;;;;;5982113;29;20573;-77
2023/10/06 08:45:26;;;;;;;15.10;6.10;;;20.80;59.40;;;;;;5965748;29;20087;-80
2023/10/06 08:48:35;;;;;;;14.60;5.90;;;20.90;59.10;;;;;;5981577;29;20106;-78
2023/10/06 08:51:38;;;;;;;17.85;6.55;;;21.00;58.70;;;;;;5980934;29;20264;-79
2023/10/06 08:54:42;;;;;;;18.83;5.63;;;21.10;58.30;;;;;;5949993;29;20114;-78
2023/10/06 08:57:45;;;;;;;19.50;5.43;;;21.10;58.30;;;;;;5981609;29;20494;-79
2023/10/06 09:00:46;;;;;;;11.63;6.25;;;21.10;58.20;;;;;;5964591;29;20487;-78
2023/10/06 09:03:49;;;;;;;20.13;5.30;;;21.40;58.20;;;;;;5965579;29;20099;-79
2023/10/06 09:07:12;;;;;;;15.65;5.55;;;21.50;57.70;;;;;;5980214;29;20090;-78
2023/10/06 09:10:17;;;;;;;23.55;6.18;;;21.60;57.00;;;;;;5979743;29;20081;-78
2023/10/06 09:13:20;;;;;;;9.82;5.32;;;21.70;56.80;;;;;;5981426;29;20081;-79
2023/10/06 09:16:24;;;;;;;13.07;5.50;;;21.80;57.10;;;;;;5965049;29;20030;-79
2023/10/06 09:19:24;;;;;;;10.82;4.60;;;21.90;56.20;;;;;;5949467;29;20317;-80
2023/10/06 09:22:29;;;;;;;10.57;4.18;;;22.00;56.10;;;;;;5982138;29;20053;-78
2023/10/06 09:25:45;;;;;;;11.80;4.68;;;22.00;55.50;;;;;;5980582;29;20038;-78
2023/10/06 09:28:55;;;;;;;21.35;4.63;;;22.20;54.90;;;;;;5964748;29;20483;-79
2023/10/06 09:31:57;;;;;;;7.55;3.92;;;22.20;54.60;;;;;;5968849;29;20180;-78
2023/10/06 09:34:58;;;;;;;17.25;5.80;;;22.30;54.30;;;;;;5984594;29;20039;-77
2023/10/06 09:38:13;;;;;;;16.55;4.55;;;22.30;54.20;;;;;;5984270;29;20038;-78
2023/10/06 09:41:25;;;;;;;14.65;4.63;;;22.40;54.00;;;;;;5986501;29;20472;-77
2023/10/06 09:44:27;;;;;;;10.35;4.55;;;22.40;53.90;;;;;;5985817;29;20159;-79
2023/10/06 09:47:28;;;;;;;11.10;4.85;;;22.50;53.90;;;;;;5969328;29;20049;-80
2023/10/06 09:50:31;;;;;;;12.93;5.32;;;22.50;53.80;;;;;;5968809;29;20046;-77
2023/10/06 09:53:38;;;;;;;10.18;4.70;;;22.60;53.60;;;;;;5988295;29;20035;-78
2023/10/06 09:56:42;;;;;;;7.60;4.13;;;22.70;53.40;;;;;;6002111;29;20088;-78
2023/10/06 09:59:43;;;;;;;15.15;5.00;;;22.80;53.20;;;;;;5970674;29;20042;-78
2023/10/06 10:02:48;;;;;;;17.17;6.45;;;22.90;53.10;;;;;;5969144;29;20046;-77
2023/10/06 10:05:50;;;;;;;10.32;4.15;;;23.00;52.80;;;;;;5985034;29;20034;-80
2023/10/06 10:08:51;;;;;;;7.93;3.95;;;23.00;52.50;;;;;;5984860;29;20054;-78
2023/10/06 10:12:24;;;;;;;6.90;4.00;;;23.20;51.70;;;;;;5970097;29;20031;-78
2023/10/06 10:16:09;;;;;;;12.63;6.38;;;23.20;52.20;;;;;;5945541;29;20688;-78
2023/10/06 10:19:12;;;;;;;10.85;5.47;;;23.40;51.50;;;;;;5960816;29;20110;-79
2023/10/06 10:22:16;;;;;;;11.90;4.97;;;23.60;51.10;;;;;;5960105;29;20466;-78
2023/10/06 10:25:19;;;;;;;10.23;4.60;;;23.80;50.70;;;;;;5945951;29;20563;-79
2023/10/06 10:28:20;;;;;;;8.27;3.75;;;24.00;50.00;;;;;;5961983;29;20038;-77
2023/10/06 10:31:21;;;;;;;10.93;4.93;;;24.30;49.80;;;;;;5962187;29;20104;-77
2023/10/06 10:34:23;;;;;;;8.02;4.35;;;24.50;49.20;;;;;;5946046;29;20038;-78
2023/10/06 10:37:27;;;;;;;10.55;3.97;;;24.70;48.90;;;;;;5945612;29;20035;-77
2023/10/06 10:40:45;;;;;;;8.65;4.20;;;24.70;48.20;;;;;;5962113;29;20087;-77
2023/10/06 10:43:48;;;;;;;10.00;4.00;;;25.10;47.80;;;;;;5961734;29;20039;-78
2023/10/06 10:46:52;;;;;;;9.75;4.10;;;25.30;47.10;;;;;;5960003;29;20190;-78
2023/10/06 10:49:53;;;;;;;8.13;3.72;;;25.50;46.70;;;;;;5944785;29;20050;-78
2023/10/06 10:52:55;;;;;;;10.70;4.38;;;25.90;46.10;;;;;;5961808;29;20050;-77
2023/10/06 10:55:56;;;;;;;9.13;3.67;;;26.20;46.00;;;;;;5945577;29;20066;-79
2023/10/06 10:58:59;;;;;;;21.75;7.35;;;26.50;44.90;;;;;;5944934;29;20714;-78
2023/10/06 11:02:07;;;;;;;11.27;3.80;;;26.80;44.20;;;;;;5980792;29;20091;-78
2023/10/06 11:05:09;;;;;;;15.00;6.63;;;27.10;43.70;;;;;;5982999;29;20046;-77
2023/10/06 11:08:11;;;;;;;9.15;4.07;;;27.40;43.20;;;;;;5982520;29;20469;-78
2023/10/06 11:11:12;;;;;;;12.50;4.10;;;27.70;42.40;;;;;;5992912;29;20126;-79
2023/10/06 11:14:13;;;;;;;6.82;3.78;;;28.10;41.40;;;;;;5985863;29;20481;-79
2023/10/06 11:17:18;;;;;;;7.85;3.72;;;28.50;41.20;;;;;;5968493;29;20066;-78
2023/10/06 11:20:33;;;;;;;11.95;4.10;;;29.00;40.30;;;;;;5983861;29;20049;-77
2023/10/06 11:23:41;;;;;;;6.82;3.72;;;29.40;39.60;;;;;;5983051;29;20043;-78
2023/10/06 11:26:43;;;;;;;8.07;4.10;;;29.90;38.60;;;;;;5982545;29;20130;-79
2023/10/06 11:29:47;;;;;;;5.32;3.40;;;30.30;37.60;;;;;;5982032;29;20042;-80
2023/10/06 11:32:48;;;;;;;6.90;3.53;;;30.70;36.50;;;;;;5983131;29;20042;-78
2023/10/06 11:35:54;;;;;;;8.38;3.75;;;30.80;36.20;;;;;;5983974;29;20208;-77
2023/10/06 11:38:55;;;;;;;10.77;3.97;;;31.00;35.50;;;;;;5966852;29;20402;-80
2023/10/06 11:42:24;;;;;;;6.78;3.55;;;31.40;34.40;;;;;;5981272;29;20420;-78
2023/10/06 11:45:31;;;;;;;12.23;3.88;;;31.60;33.70;;;;;;5985428;29;20046;-78
2023/10/06 11:48:35;;;;;;;23.90;4.23;;;32.00;33.30;;;;;;5969198;29;20061;-79
2023/10/06 11:51:40;;;;;;;9.25;3.97;;;32.50;33.00;;;;;;6005525;29;20064;-80
2023/10/06 11:54:41;;;;;;;6.78;3.60;;;33.10;32.40;;;;;;5973603;29;20030;-79
2023/10/06 11:57:42;;;;;;;6.57;4.22;;;33.70;31.50;;;;;;6005637;29;20351;-79
2023/10/06 12:00:43;;;;;;;6.40;3.67;;;34.30;30.50;;;;;;6005746;29;20046;-79
2023/10/06 12:03:44;;;;;;;5.47;3.45;;;34.80;30.00;;;;;;6006154;29;20037;-79
2023/10/06 12:06:45;;;;;;;7.07;3.60;;;35.40;29.30;;;;;;6005233;29;20141;-79
2023/10/06 12:09:47;;;;;;;9.13;3.25;;;35.80;28.70;;;;;;5989824;29;20034;-79
2023/10/06 12:12:52;;;;;;;9.80;4.07;;;36.30;28.10;;;;;;5958828;29;20120;-79
2023/10/06 12:15:53;;;;;;;9.27;4.13;;;36.60;27.80;;;;;;5958933;29;20057;-78
2023/10/06 12:18:54;;;;;;;3.80;3.03;;;37.00;27.50;;;;;;5959186;29;20126;-78
2023/10/06 12:21:55;;;;;;;5.10;3.30;;;37.30;27.00;;;;;;5960511;29;20070;-79
2023/10/06 12:24:56;;;;;;;7.68;3.50;;;37.60;26.80;;;;;;5944139;29;20073;-79
2023/10/06 12:27:59;;;;;;;12.52;3.83;;;37.90;26.60;;;;;;5943191;29;20031;-80
2023/10/06 12:31:02;;;;;;;9.32;4.05;;;37.90;26.30;;;;;;5959671;29;20118;-78
2023/10/06 12:34:03;;;;;;;10.25;3.25;;;38.10;26.20;;;;;;5943547;29;20043;-79
2023/10/06 12:37:07;;;;;;;11.00;3.92;;;37.70;26.40;;;;;;5960456;29;20047;-78
2023/10/06 12:40:09;;;;;;;7.88;3.30;;;37.40;26.50;;;;;;5960267;29;20577;-79
2023/10/06 12:43:10;;;;;;;7.18;3.50;;;37.10;26.50;;;;;;5961092;29;20119;-79
2023/10/06 12:46:11;;;;;;;6.22;3.72;;;36.50;26.80;;;;;;5960755;29;20168;-78
2023/10/06 12:49:18;;;;;;;7.10;3.35;;;36.00;27.30;;;;;;5959913;29;20645;-77
2023/10/06 12:52:19;;;;;;;5.85;3.30;;;35.50;27.60;;;;;;5943427;29;20464;-80
2023/10/06 12:55:27;;;;;;;12.90;3.67;;;34.70;28.50;;;;;;5942997;29;20043;-78
2023/10/06 12:58:28;;;;;;;7.25;3.60;;;33.60;29.20;;;;;;5942949;29;20035;-79
2023/10/06 13:01:31;;;;;;;7.03;3.53;;;32.60;30.20;;;;;;5958367;29;20499;-75
2023/10/06 13:04:35;;;;;;;9.75;3.30;;;31.80;31.30;;;;;;5965029;29;20117;-77
2023/10/06 13:07:36;;;;;;;11.43;3.47;;;31.10;32.30;;;;;;5978782;29;20037;-77
2023/10/06 13:10:39;;;;;;;5.32;3.15;;;30.40;33.10;;;;;;5982552;29;20809;-78
2023/10/06 13:13:40;;;;;;;9.43;3.38;;;29.90;33.70;;;;;;5987099;29;20034;-77
2023/10/06 13:16:42;;;;;;;21.40;5.13;;;29.50;34.30;;;;;;5986971;29;20545;-77
2023/10/06 13:19:43;;;;;;;11.35;3.50;;;29.10;34.80;;;;;;6001525;29;20110;-77
2023/10/06 13:22:47;;;;;;;9.50;3.05;;;28.80;35.40;;;;;;6002638;29;20053;-78
2023/10/06 13:25:48;;;;;;;9.60;4.00;;;28.60;36.00;;;;;;5979725;29;20058;-77
2023/10/06 13:28:51;;;;;;;4.32;2.92;;;28.50;36.30;;;;;;5963635;29;20042;-77
2023/10/06 13:31:51;;;;;;;4.10;2.92;;;28.30;36.50;;;;;;5963950;29;20038;-78
2023/10/06 13:34:53;;;;;;;9.63;3.78;;;28.20;36.80;;;;;;5980865;29;20034;-77
2023/10/06 13:37:54;;;;;;;11.00;3.20;;;28.00;36.70;;;;;;5964131;29;20448;-77
2023/10/06 13:40:55;;;;;;;7.53;3.25;;;27.90;37.00;;;;;;5964342;29;20108;-79
2023/10/06 13:43:56;;;;;;;7.97;3.42;;;27.90;37.40;;;;;;5981071;29;20035;-79
2023/10/06 13:46:57;;;;;;;5.75;3.30;;;27.80;37.70;;;;;;5949330;29;20057;-77
2023/10/06 13:49:58;;;;;;;6.47;3.22;;;27.70;38.00;;;;;;5978366;29;20052;-77
2023/10/06 13:52:59;;;;;;;5.60;2.72;;;27.70;38.40;;;;;;5986181;29;20471;-78
2023/10/06 13:56:03;;;;;;;7.47;3.22;;;27.70;38.60;;;;;;5971190;29;20098;-78
2023/10/06 13:59:05;;;;;;;7.13;3.50;;;27.60;38.80;;;;;;5988581;29;20034;-79
2023/10/06 14:02:06;;;;;;;9.60;3.25;;;27.60;39.00;;;;;;5975171;29;20044;-77
2023/10/06 14:05:07;;;;;;;8.45;3.30;;;27.50;39.30;;;;;;5985070;29;20532;-76
2023/10/06 14:08:13;;;;;;;10.77;3.22;;;27.50;39.40;;;;;;5980185;29;20407;-76
2023/10/06 14:11:14;;;;;;;15.27;3.53;;;27.50;39.50;;;;;;5971384;29;20034;-79
2023/10/06 14:15:21;;;;;;;9.93;3.72;;;27.50;39.60;;;;;;6003250;29;20475;-77
2023/10/06 14:17:47;;;;;;;8.70;3.03;;;27.50;39.80;;;;;;5991371;29;20050;-78
2023/10/06 14:20:57;;;;;;;5.43;3.05;;;27.40;40.10;;;;;;5994481;29;20046;-78
2023/10/06 14:24:01;;;;;;;5.85;3.00;;;27.40;40.20;;;;;;5967951;29;20537;-77
2023/10/06 14:27:04;;;;;;;9.52;3.22;;;27.40;40.40;;;;;;5952884;29;20103;-78
2023/10/06 14:30:08;;;;;;;6.70;3.30;;;27.40;40.50;;;;;;5983896;29;20062;-77
2023/10/06 14:46:01;;;;;;;5.47;2.75;;;27.30;41.00;;;;;;5984071;29;20134;-79
2023/10/06 14:49:05;;;;;;;9.15;3.40;;;27.20;41.00;;;;;;5984108;29;20175;-79
2023/10/06 14:52:08;;;;;;;8.30;2.53;;;27.20;41.10;;;;;;5967930;29;20109;-77
2023/10/06 14:55:09;;;;;;;7.15;2.97;;;27.20;40.60;;;;;;5952740;29;20038;-77
2023/10/06 14:58:12;;;;;;;6.38;3.55;;;27.20;41.10;;;;;;5952277;29;20035;-77
2023/10/06 15:01:14;;;;;;;8.57;2.90;;;27.20;41.20;;;;;;5981972;29;20254;-77
2023/10/06 15:04:15;;;;;;;4.70;2.78;;;27.20;41.20;;;;;;5982554;29;20042;-76
2023/10/06 15:07:16;;;;;;;9.40;3.20;;;27.20;41.20;;;;;;5966633;29;20046;-76
2023/10/06 15:10:18;;;;;;;6.80;2.67;;;27.20;41.30;;;;;;5982752;29;20140;-78
2023/10/06 15:13:19;;;;;;;5.57;3.30;;;27.10;41.30;;;;;;5983407;29;20038;-77
2023/10/06 15:16:23;;;;;;;4.10;2.63;;;27.10;41.30;;;;;;5966788;29;20107;-78
2023/10/06 15:19:24;;;;;;;5.85;3.00;;;27.10;41.30;;;;;;5982732;29;20043;-77
2023/10/06 15:22:26;;;;;;;6.00;2.78;;;27.10;41.40;;;;;;5966539;29;20038;-77
2023/10/06 15:25:30;;;;;;;6.63;3.00;;;27.10;41.50;;;;;;5966013;29;20038;-78
2023/10/06 15:28:32;;;;;;;8.48;3.20;;;27.00;41.50;;;;;;5966526;29;20050;-77
2023/10/06 15:31:33;;;;;;;9.35;3.40;;;27.00;41.60;;;;;;5965378;29;20042;-78
2023/10/06 15:34:36;;;;;;;5.20;2.50;;;26.90;41.70;;;;;;5966649;29;20053;-78
2023/10/06 15:37:39;;;;;;;6.90;3.03;;;26.90;41.80;;;;;;5985348;29;20090;-77
2023/10/06 15:40:40;;;;;;;3.20;2.38;;;26.90;41.80;;;;;;5982719;29;20042;-78
2023/10/06 15:43:46;;;;;;;8.25;4.35;;;26.80;41.80;;;;;;5950552;29;20042;-77
2023/10/06 15:46:47;;;;;;;5.43;2.92;;;26.90;41.90;;;;;;5965914;29;20115;-78
2023/10/06 15:49:53;;;;;;;5.82;3.03;;;26.80;41.90;;;;;;5978414;29;20101;-79
2023/10/06 15:52:54;;;;;;;9.63;3.08;;;26.70;41.90;;;;;;6002627;29;20038;-77
2023/10/06 15:56:00;;;;;;;4.78;2.60;;;26.70;42.00;;;;;;5982144;29;20539;-78
2023/10/06 15:59:01;;;;;;;5.70;3.10;;;26.60;42.00;;;;;;5965303;29;20081;-79
2023/10/06 16:02:02;;;;;;;10.05;3.15;;;26.70;42.20;;;;;;5965428;29;20046;-78
2023/10/06 16:05:04;;;;;;;10.25;3.17;;;26.60;42.30;;;;;;5965957;29;20039;-76